createdAt,value
2023-02-06T00:00:23.742Z,5.80
2023-02-06T00:02:52.633Z,6.10
2023-02-06T00:05:21.231Z,5.90
2023-02-06T00:07:50.928Z,5.60
2023-02-06T00:10:19.308Z,5.20
2023-02-06T00:12:49.528Z,6.10
2023-02-06T00:15:18.436Z,6.30
2023-02-06T00:17:46.696Z,5.60
2023-02-06T00:20:15.895Z,7.10
2023-02-06T00:22:44.904Z,6.10
2023-02-06T00:25:14.085Z,5.50
2023-02-06T00:27:43.147Z,5.50
2023-02-06T00:30:12.894Z,5.80
2023-02-06T00:32:42.532Z,5.10
2023-02-06T00:35:10.884Z,5.40
2023-02-06T00:37:42.334Z,5.60
2023-02-06T00:40:11.177Z,5.60
2023-02-06T00:42:40.014Z,6.10
2023-02-06T00:45:09.623Z,6.00
2023-02-06T00:47:38.429Z,6.30
2023-02-06T00:50:06.894Z,4.90
2023-02-06T00:52:35.275Z,5.50
2023-02-06T00:55:03.859Z,6.30
2023-02-06T00:57:33.124Z,4.90
2023-02-06T01:00:01.313Z,5.50
2023-02-06T01:02:30.162Z,4.50
2023-02-06T01:05:00.549Z,4.90
2023-02-06T01:07:31.896Z,5.10
2023-02-06T01:10:03.248Z,3.30
2023-02-06T01:12:33.464Z,5.40
2023-02-06T01:15:02.459Z,5.10
2023-02-06T01:17:33.194Z,3.80
2023-02-06T01:20:01.883Z,5.00
2023-02-06T01:22:30.358Z,4.80
2023-02-06T01:24:58.634Z,6.20
2023-02-06T01:27:27.632Z,5.10
2023-02-06T01:29:56.009Z,5.00
2023-02-06T01:32:24.387Z,4.80
2023-02-06T01:34:52.867Z,4.80
2023-02-06T01:37:21.555Z,5.20
2023-02-06T01:39:49.834Z,5.00
2023-02-06T01:42:18.111Z,5.50
2023-02-06T01:44:46.898Z,5.00
2023-02-06T01:47:15.282Z,4.90
2023-02-06T01:49:46.347Z,5.00
2023-02-06T01:52:22.793Z,5.00
2023-02-06T01:54:56.750Z,5.50
2023-02-06T01:57:24.973Z,5.50
2023-02-06T01:59:57.350Z,5.10
2023-02-06T02:04:55.330Z,5.30
2023-02-06T02:07:29.179Z,5.40
2023-02-06T02:10:02.535Z,5.30
2023-02-06T02:12:35.319Z,4.80
2023-02-06T02:15:05.750Z,5.30
2023-02-06T02:18:13.452Z,5.40
2023-02-06T02:20:56.372Z,4.90
2023-02-06T02:24:02.846Z,4.50
2023-02-06T02:26:47.097Z,5.30
2023-02-06T02:29:37.903Z,4.70
2023-02-06T02:32:21.539Z,4.40
2023-02-06T02:34:49.816Z,4.40
2023-02-06T02:37:23.725Z,4.50
2023-02-06T02:40:19.241Z,4.60
2023-02-06T02:43:05.029Z,5.10
2023-02-06T02:45:46.838Z,4.70
2023-02-06T02:48:27.093Z,4.20
2023-02-06T02:50:55.457Z,4.60
2023-02-06T02:53:24.045Z,4.40
2023-02-06T02:55:52.857Z,4.70
2023-02-06T02:58:24.392Z,4.70
2023-02-06T03:01:17.701Z,4.80
2023-02-06T03:03:46.737Z,4.10
2023-02-06T03:06:53.734Z,4.00
2023-02-06T03:09:39.615Z,3.30
2023-02-06T03:12:13.589Z,4.50
2023-02-06T03:14:46.582Z,4.30
2023-02-06T03:17:17.388Z,3.90
2023-02-06T03:19:51.396Z,4.60
2023-02-06T03:22:20.554Z,4.30
2023-02-06T03:24:50.674Z,4.60
2023-02-06T03:27:18.951Z,4.40
2023-02-06T03:29:47.641Z,4.60
2023-02-06T03:32:27.410Z,5.00
2023-02-06T03:35:19.826Z,5.30
2023-02-06T03:37:50.764Z,4.50
2023-02-06T03:40:37.450Z,4.40
2023-02-06T03:43:26.745Z,5.10
2023-02-06T03:46:00.105Z,4.60
2023-02-06T03:48:32.412Z,4.30
2023-02-06T03:51:13.676Z,4.80
2023-02-06T03:53:45.658Z,3.80
2023-02-06T03:56:19.570Z,4.80
2023-02-06T03:58:47.844Z,5.20
2023-02-06T04:01:16.976Z,4.70
2023-02-06T04:03:45.324Z,4.70
2023-02-06T04:06:13.805Z,5.30
2023-02-06T04:08:42.489Z,4.00
2023-02-06T04:11:11.087Z,4.40
2023-02-06T04:13:40.374Z,4.70
2023-02-06T04:16:09.436Z,4.50
2023-02-06T04:18:38.362Z,4.00
2023-02-06T04:21:07.230Z,4.40
2023-02-06T04:23:35.735Z,3.90
2023-02-06T04:26:04.217Z,5.00
2023-02-06T04:28:32.600Z,4.80
2023-02-06T04:31:01.394Z,4.30
2023-02-06T04:33:30.483Z,4.30
2023-02-06T04:35:59.064Z,4.70
2023-02-06T04:38:27.456Z,5.50
2023-02-06T04:43:00.242Z,4.90
2023-02-06T04:45:28.619Z,4.80
2023-02-06T04:47:59.178Z,4.60
2023-02-06T04:50:31.636Z,4.80
2023-02-06T04:53:00.411Z,5.10
2023-02-06T04:55:28.791Z,5.20
2023-02-06T04:57:57.990Z,4.90
2023-02-06T05:00:26.370Z,4.90
2023-02-06T05:02:54.814Z,5.10
2023-02-06T05:05:22.959Z,5.20
2023-02-06T05:07:51.504Z,5.00
2023-02-06T05:10:20.096Z,5.20
2023-02-06T05:12:51.469Z,6.50
2023-02-06T05:15:20.021Z,4.70
2023-02-06T05:17:48.091Z,4.50
2023-02-06T05:20:16.474Z,5.50
2023-02-06T05:22:45.571Z,5.50
2023-02-06T05:25:13.952Z,5.40
2023-02-06T05:27:43.592Z,4.90
2023-02-06T05:30:13.264Z,4.40
2023-02-06T05:32:42.574Z,4.50
2023-02-06T05:35:11.145Z,5.10
2023-02-06T05:37:41.880Z,4.30
2023-02-06T05:40:13.118Z,5.70
2023-02-06T05:42:41.905Z,5.00
2023-02-06T05:45:10.598Z,4.80
2023-02-06T05:47:39.392Z,5.10
2023-02-06T05:50:08.218Z,4.50
2023-02-06T05:52:46.587Z,4.90
2023-02-06T05:55:17.224Z,4.30
2023-02-06T05:57:45.704Z,4.30
2023-02-06T07:52:58.076Z,5.10
2023-02-06T07:55:26.522Z,6.00
2023-02-06T07:57:55.320Z,3.80
2023-02-06T08:00:23.487Z,4.70
2023-02-06T08:06:42.624Z,4.40
2023-02-06T08:09:17.660Z,3.10
2023-02-06T08:11:48.770Z,3.50
2023-02-06T08:14:20.219Z,3.00
2023-02-06T08:16:52.121Z,3.90
2023-02-06T08:19:21.180Z,3.70
2023-02-06T08:21:50.273Z,4.10
2023-02-06T08:24:18.857Z,3.10
2023-02-06T08:26:47.134Z,2.70
2023-02-06T08:29:15.412Z,3.30
2023-02-06T08:31:44.429Z,3.40
2023-02-06T08:34:14.832Z,3.40
2023-02-06T08:36:43.754Z,3.20
2023-02-06T08:39:15.276Z,3.70
2023-02-06T08:41:43.933Z,2.90
2023-02-06T08:44:16.232Z,2.80
2023-02-06T08:46:48.163Z,3.00
2023-02-06T08:49:19.976Z,3.60
2023-02-06T08:51:50.395Z,2.80
2023-02-06T08:54:21.133Z,3.10
2023-02-06T08:56:50.298Z,2.90
2023-02-06T08:59:19.700Z,3.10
2023-02-06T09:01:49.675Z,3.40
2023-02-06T09:04:19.468Z,3.00
2023-02-06T09:06:49.450Z,2.60
2023-02-06T09:09:18.548Z,2.90
2023-02-06T09:11:47.229Z,3.00
2023-02-06T09:14:17.313Z,3.10
2023-02-06T09:16:45.729Z,2.90
2023-02-06T09:19:14.313Z,2.70
2023-02-06T09:21:42.897Z,2.90
2023-02-06T09:24:11.891Z,3.70
2023-02-06T09:26:58.109Z,3.70
2023-02-06T09:29:29.437Z,2.80
2023-02-06T09:31:58.012Z,2.80
2023-02-06T09:34:27.466Z,3.00
2023-02-06T09:36:57.127Z,3.20
2023-02-06T09:39:26.427Z,3.10
2023-02-06T09:41:57.372Z,2.90
2023-02-06T09:44:33.149Z,2.20
2023-02-06T09:47:18.320Z,2.60
2023-02-06T09:49:49.743Z,2.40
2023-02-06T09:52:57.751Z,3.10
2023-02-06T09:55:34.324Z,3.20
2023-02-06T09:58:09.253Z,3.20
2023-02-06T10:00:42.678Z,3.00
2023-02-06T10:03:30.096Z,2.40
2023-02-06T10:06:21.946Z,2.50
2023-02-06T10:09:01.557Z,2.70
2023-02-06T10:11:48.161Z,3.30
2023-02-06T10:14:49.611Z,3.20
2023-02-06T10:17:25.468Z,3.00
2023-02-06T10:19:58.758Z,2.70
2023-02-06T10:23:00.451Z,2.70
2023-02-06T10:25:39.420Z,3.20
2023-02-06T10:28:52.170Z,2.80
2023-02-06T10:31:35.296Z,3.00
2023-02-06T10:34:38.800Z,2.40
2023-02-06T10:37:33.802Z,2.90
2023-02-06T10:40:34.551Z,2.50
2023-02-06T10:43:36.203Z,2.20
2023-02-06T10:46:28.566Z,2.70
2023-02-06T10:49:02.662Z,2.80
2023-02-06T10:51:42.807Z,2.90
2023-02-06T10:54:25.323Z,2.40
2023-02-06T10:56:58.719Z,2.40
2023-02-06T10:59:38.677Z,2.20
2023-02-06T11:02:18.876Z,2.20
2023-02-06T11:05:09.705Z,2.30
2023-02-06T11:07:42.719Z,2.50
2023-02-06T11:10:16.722Z,2.50
2023-02-06T11:12:49.925Z,2.40
2023-02-06T11:15:33.186Z,2.50
2023-02-06T11:18:06.726Z,2.80
2023-02-06T11:20:37.033Z,1.90
2023-02-06T11:23:22.871Z,2.00
2023-02-06T11:26:09.207Z,2.00
2023-02-06T11:28:55.977Z,2.30
2023-02-06T11:32:10.228Z,2.50
2023-02-06T11:34:57.046Z,2.30
2023-02-06T11:37:32.377Z,2.90
2023-02-06T11:40:17.756Z,3.80
2023-02-06T11:42:53.030Z,2.60
2023-02-06T11:45:47.889Z,3.20
2023-02-06T11:49:08.390Z,4.00
2023-02-06T11:51:54.037Z,5.50
2023-02-06T11:54:35.538Z,4.60
2023-02-06T11:57:24.139Z,3.30
2023-02-06T12:00:23.030Z,2.80
2023-02-06T12:02:52.632Z,2.60
2023-02-06T12:05:22.133Z,2.70
2023-02-06T12:07:57.346Z,2.60
2023-02-06T12:10:26.474Z,2.80
2023-02-06T12:13:07.035Z,3.40
2023-02-06T12:16:07.584Z,2.80
2023-02-06T12:18:44.119Z,2.90
2023-02-06T12:21:21.632Z,3.50
2023-02-06T12:24:03.861Z,2.70
2023-02-06T12:26:33.838Z,2.80
2023-02-06T12:29:08.357Z,2.40
2023-02-06T12:31:49.111Z,2.40
2023-02-06T12:34:23.944Z,2.20
2023-02-06T12:37:11.092Z,3.10
2023-02-06T12:39:40.755Z,3.10
2023-02-06T12:42:33.057Z,2.90
2023-02-06T12:45:19.812Z,3.30
2023-02-06T12:47:58.182Z,2.90
2023-02-06T12:51:06.177Z,3.00
2023-02-06T12:53:36.736Z,2.90
2023-02-06T12:56:15.551Z,3.20
2023-02-06T12:58:54.430Z,2.60
2023-02-06T13:01:58.332Z,2.70
2023-02-06T13:04:29.798Z,2.80
2023-02-06T13:06:59.015Z,3.00
2023-02-06T13:09:30.449Z,2.60
2023-02-06T13:12:11.441Z,2.90
2023-02-06T13:14:52.316Z,2.90
2023-02-06T13:17:25.406Z,2.50
2023-02-06T13:20:09.408Z,2.50
2023-02-06T13:22:45.712Z,2.60
2023-02-06T13:25:28.226Z,2.20
2023-02-06T13:28:16.412Z,2.00
2023-02-06T13:30:46.678Z,2.00
2023-02-06T13:33:19.685Z,2.00
2023-02-06T13:35:55.241Z,2.40
2023-02-06T13:38:23.711Z,2.20
2023-02-06T13:41:16.767Z,2.80
2023-02-06T13:43:49.859Z,2.30
2023-02-06T13:46:20.315Z,2.10
2023-02-06T13:49:08.560Z,2.20
2023-02-06T13:51:46.431Z,2.40
2023-02-06T13:54:47.793Z,2.40
2023-02-06T13:57:37.772Z,2.10
2023-02-06T14:00:17.897Z,1.90
2023-02-06T14:03:07.255Z,2.10
2023-02-06T14:05:44.593Z,2.20
2023-02-06T14:08:34.777Z,2.50
2023-02-06T14:11:19.539Z,2.30
2023-02-06T14:14:14.950Z,2.00
2023-02-06T14:17:08.519Z,2.20
2023-02-06T14:19:51.321Z,2.60
2023-02-06T14:22:38.557Z,2.50
2023-02-06T14:25:32.912Z,2.50
2023-02-06T14:28:24.092Z,2.30
2023-02-06T14:31:03.378Z,2.30
2023-02-06T14:33:40.076Z,2.30
2023-02-06T14:36:27.675Z,2.00
2023-02-06T14:39:03.414Z,1.90
2023-02-06T14:41:35.001Z,2.20
2023-02-06T14:44:03.801Z,1.90
2023-02-06T14:46:32.359Z,2.00
2023-02-06T14:49:01.790Z,2.50
2023-02-06T14:51:35.893Z,2.40
2023-02-06T14:54:05.296Z,3.20
2023-02-06T14:56:36.881Z,3.00
2023-02-06T14:59:16.191Z,3.10
2023-02-06T15:01:53.272Z,2.80
2023-02-06T15:04:23.699Z,3.70
2023-02-06T15:06:56.226Z,3.90
2023-02-06T15:09:26.631Z,4.00
2023-02-06T15:11:58.741Z,4.30
2023-02-06T15:14:32.984Z,2.90
2023-02-06T15:17:02.895Z,2.40
2023-02-06T15:19:37.743Z,2.30
2023-02-06T15:24:40.538Z,2.50
2023-02-06T15:27:30.861Z,2.50
2023-02-06T15:30:00.663Z,2.50
2023-02-06T15:32:35.876Z,2.30
2023-02-06T15:35:07.188Z,2.40
2023-02-06T15:37:36.736Z,2.90
2023-02-06T15:40:31.226Z,3.30
2023-02-06T15:43:00.017Z,3.30
2023-02-06T15:45:34.762Z,3.30
2023-02-06T15:48:21.552Z,3.40
2023-02-06T15:51:16.356Z,4.00
2023-02-06T15:53:46.828Z,4.10
2023-02-06T15:58:44.875Z,3.40
2023-02-06T16:01:19.994Z,3.30
2023-02-06T16:03:53.586Z,3.50
2023-02-06T16:06:22.611Z,3.60
2023-02-06T16:08:54.756Z,3.80
2023-02-06T16:11:48.142Z,3.20
2023-02-06T16:14:56.738Z,4.00
2023-02-06T16:17:41.321Z,3.60
2023-02-06T16:20:33.357Z,3.50
2023-02-06T16:23:19.865Z,3.50
2023-02-06T16:25:49.469Z,4.00
2023-02-06T16:28:23.308Z,4.40
2023-02-06T16:31:04.684Z,4.40
2023-02-06T16:33:41.601Z,4.10
2023-02-06T16:36:12.978Z,4.10
2023-02-06T16:38:44.486Z,4.10
2023-02-06T16:41:33.093Z,4.70
2023-02-06T16:44:04.638Z,5.10
2023-02-06T16:46:34.756Z,5.10
2023-02-06T16:49:03.035Z,7.20
2023-02-06T16:51:32.307Z,9.20
2023-02-06T16:54:03.172Z,5.80
2023-02-06T16:56:31.644Z,7.50
2023-02-06T16:58:59.818Z,6.90
2023-02-06T17:01:30.015Z,6.30
2023-02-06T17:03:59.758Z,5.50
2023-02-06T17:06:29.258Z,8.50
2023-02-06T17:09:03.397Z,5.10
2023-02-06T17:11:32.469Z,5.80
2023-02-06T17:14:00.748Z,5.70
2023-02-06T17:16:29.739Z,5.60
2023-02-06T17:18:59.152Z,6.30
2023-02-06T17:21:30.082Z,5.50
2023-02-06T17:23:58.468Z,6.00
2023-02-06T17:26:26.940Z,7.20
2023-02-06T17:28:55.327Z,7.40
2023-02-06T17:31:25.096Z,6.50
2023-02-06T17:33:53.723Z,7.00
2023-02-06T17:36:29.920Z,8.10
2023-02-06T17:38:59.238Z,7.40
2023-02-06T17:41:27.961Z,6.50
2023-02-06T17:43:56.566Z,7.70
2023-02-06T17:46:25.627Z,7.30
2023-02-06T17:48:54.247Z,7.50
2023-02-06T17:51:24.058Z,7.30
2023-02-06T17:53:52.329Z,9.10
2023-02-06T17:56:21.324Z,7.20
2023-02-06T17:58:49.498Z,9.10
2023-02-06T18:01:19.957Z,9.60
2023-02-06T18:03:48.610Z,10.40
2023-02-06T18:06:17.575Z,11.90
2023-02-06T18:08:46.182Z,9.30
2023-02-06T18:11:19.746Z,10.40
2023-02-06T18:13:49.194Z,8.20
2023-02-06T18:16:19.684Z,9.50
2023-02-06T18:18:48.251Z,8.90
2023-02-06T18:21:19.352Z,7.30
2023-02-06T18:23:48.649Z,8.20
2023-02-06T18:26:19.501Z,8.60
2023-02-06T18:28:47.967Z,8.20
2023-02-06T18:31:24.883Z,8.40
2023-02-06T18:33:53.839Z,8.10
2023-02-06T18:36:22.525Z,7.60
2023-02-06T18:38:51.336Z,7.90
2023-02-06T18:41:38.535Z,7.20
2023-02-06T18:44:09.429Z,6.90
2023-02-06T18:46:38.411Z,6.40
2023-02-06T18:49:07.148Z,6.70
2023-02-06T18:51:36.142Z,6.90
2023-02-06T18:54:04.727Z,6.60
2023-02-06T18:56:35.465Z,6.60
2023-02-06T18:59:06.754Z,6.60
2023-02-06T19:01:35.727Z,6.20
2023-02-06T19:04:04.392Z,6.40
2023-02-06T19:06:36.052Z,6.20
2023-02-06T19:09:08.524Z,5.60
2023-02-06T19:11:37.522Z,6.20
2023-02-06T19:14:38.272Z,5.10
2023-02-06T19:17:07.964Z,5.40
2023-02-06T19:19:36.756Z,5.60
2023-02-06T19:22:05.751Z,5.90
2023-02-06T19:24:35.265Z,5.50
2023-02-06T19:27:03.941Z,6.20
2023-02-06T19:29:40.178Z,6.30
2023-02-06T19:32:12.279Z,5.40
2023-02-06T19:34:42.180Z,5.90
2023-02-06T19:37:10.768Z,6.30
2023-02-06T19:39:47.712Z,5.80
2023-02-06T19:42:21.349Z,6.50
2023-02-06T19:45:25.067Z,7.10
2023-02-06T19:48:22.005Z,6.20
2023-02-06T19:51:02.700Z,8.10
2023-02-06T19:53:33.200Z,7.60
2023-02-06T19:56:02.297Z,8.10
2023-02-06T19:58:32.175Z,9.80
2023-02-06T20:01:14.309Z,12.10
2023-02-06T20:03:45.015Z,14.00
2023-02-06T20:06:14.040Z,12.70
2023-02-06T20:08:45.907Z,8.60
2023-02-06T20:12:08.277Z,8.30
2023-02-06T20:14:38.782Z,8.60
2023-02-06T20:17:07.168Z,10.60
2023-02-06T20:19:35.843Z,11.10
2023-02-06T20:22:06.884Z,11.50
2023-02-06T20:24:35.982Z,13.90
2023-02-06T20:27:07.500Z,12.00
2023-02-06T20:29:38.978Z,11.60
2023-02-06T20:32:07.780Z,9.70
2023-02-06T20:34:36.779Z,10.50
2023-02-06T20:37:05.357Z,10.10
2023-02-06T20:39:34.960Z,12.50
2023-02-06T20:42:06.016Z,13.30
2023-02-06T20:44:34.489Z,12.00
2023-02-06T20:47:02.970Z,10.20
2023-02-06T20:49:32.266Z,9.30
2023-02-06T20:52:01.678Z,8.50
2023-02-06T20:54:30.925Z,8.40
2023-02-06T20:57:00.787Z,8.30
2023-02-06T20:59:29.399Z,9.60
2023-02-06T21:02:10.936Z,9.10
2023-02-06T21:04:42.511Z,9.70
2023-02-06T21:07:14.060Z,8.60
2023-02-06T21:09:46.126Z,11.00
2023-02-06T21:12:15.220Z,10.90
2023-02-06T21:14:43.500Z,9.80
2023-02-06T21:17:12.101Z,12.40
2023-02-06T21:19:40.680Z,13.30
2023-02-06T21:22:09.149Z,13.30
2023-02-06T21:24:37.427Z,12.60
2023-02-06T21:27:06.118Z,10.90
2023-02-06T21:29:34.494Z,9.70
2023-02-06T21:32:13.219Z,9.60
2023-02-06T21:34:44.675Z,10.60
2023-02-06T21:37:14.589Z,9.60
2023-02-06T21:39:42.861Z,10.30
2023-02-06T21:42:11.738Z,8.20
2023-02-06T21:44:43.413Z,6.60
2023-02-06T21:47:14.552Z,7.20
2023-02-06T21:49:42.725Z,6.80
2023-02-06T21:52:11.476Z,6.90
2023-02-06T21:54:43.375Z,8.60
2023-02-06T21:57:11.857Z,7.30
2023-02-06T21:59:45.255Z,6.20
2023-02-06T22:02:13.837Z,5.90
2023-02-06T22:04:46.825Z,6.80
2023-02-06T22:07:15.721Z,5.70
2023-02-06T22:09:44.239Z,6.80
2023-02-06T22:12:12.684Z,6.00
2023-02-06T22:14:41.063Z,5.30
2023-02-06T22:17:09.554Z,5.80
2023-02-06T22:19:38.539Z,5.60
2023-02-06T22:22:07.732Z,5.40
2023-02-06T22:24:36.803Z,5.60
2023-02-06T22:27:07.266Z,6.20
2023-02-06T22:29:36.560Z,6.10
2023-02-06T22:32:07.500Z,5.10
2023-02-06T22:34:36.180Z,4.80
2023-02-06T22:37:04.868Z,5.80
2023-02-06T22:39:33.345Z,5.40
2023-02-06T22:42:04.495Z,4.80
2023-02-06T22:44:41.041Z,4.90
2023-02-06T22:47:12.616Z,5.20
2023-02-06T22:49:40.995Z,4.80
2023-02-06T22:52:29.959Z,4.30
2023-02-06T22:54:58.536Z,4.30
2023-02-06T22:57:27.945Z,5.30
2023-02-06T22:59:57.638Z,4.60
2023-02-06T23:02:28.286Z,4.50
2023-02-06T23:04:56.972Z,5.70
2023-02-06T23:07:25.659Z,5.50
2023-02-06T23:09:54.150Z,5.60
2023-02-06T23:12:29.689Z,5.40
2023-02-06T23:15:00.434Z,6.70
2023-02-06T23:17:29.112Z,7.40
2023-02-06T23:19:57.594Z,8.10
2023-02-06T23:22:26.177Z,7.90
2023-02-06T23:24:54.761Z,6.20
2023-02-06T23:27:25.497Z,5.20
2023-02-06T23:29:56.868Z,5.10
2023-02-06T23:32:25.328Z,5.20
2023-02-06T23:34:56.370Z,5.50
2023-02-06T23:37:25.155Z,5.00
2023-02-06T23:39:55.992Z,6.00
2023-02-06T23:42:24.299Z,5.40
2023-02-06T23:44:52.748Z,5.30
2023-02-06T23:47:22.198Z,5.70
2023-02-06T23:49:50.323Z,5.70
2023-02-06T23:52:19.016Z,7.70
2023-02-06T23:54:47.491Z,6.10
2023-02-06T23:57:15.742Z,7.00
2023-02-06T23:59:44.664Z,6.60
